Time;durP1;ratioP1;P1;durP2;ratioP2;P2;SDS_P1;SDS_P2;PMS_P1;PMS_P2;Temp;Humidity;BMP_temperature;BMP_pressure;BME280_temperature;BME280_humidity;BME280_pressure;Samples;Min_cycle;Max_cycle;Signal;HPM_P1;HPM_P2
2021/05/01 00:01:05;;;;;;;4.03;3.65;;;14.10;68.40;;;;;;5094384;28;20454;-45
2021/05/01 00:03:31;;;;;;;4.00;3.50;;;14.10;68.40;;;;;;5093915;28;20556;-48
2021/05/01 00:05:57;;;;;;;3.58;3.28;;;14.10;68.40;;;;;;5095357;28;20139;-48
2021/05/01 00:08:23;;;;;;;4.22;3.78;;;14.10;68.40;;;;;;5094163;28;20181;-47
2021/05/01 00:10:49;;;;;;;4.40;3.63;;;14.10;68.40;;;;;;5104091;28;20471;-47
2021/05/01 00:13:16;;;;;;;4.05;3.58;;;14.10;68.40;;;;;;5114335;28;20047;-45
2021/05/01 00:15:41;;;;;;;3.60;3.30;;;14.10;68.40;;;;;;5104635;27;20047;-46
2021/05/01 00:18:07;;;;;;;4.15;3.50;;;14.10;68.40;;;;;;5093751;28;20039;-45
2021/05/01 00:20:33;;;;;;;3.92;3.35;;;14.10;68.40;;;;;;5101873;28;20511;-45
2021/05/01 00:22:59;;;;;;;3.70;3.30;;;14.20;68.50;;;;;;5114361;28;20040;-44
2021/05/01 00:25:24;;;;;;;4.10;3.58;;;14.10;69.00;;;;;;5104094;28;20488;-43
2021/05/01 00:27:50;;;;;;;4.05;3.25;;;14.10;68.40;;;;;;5093558;28;20048;-44
2021/05/01 00:30:16;;;;;;;4.00;3.40;;;14.10;68.40;;;;;;5093919;28;20055;-45
2021/05/01 00:32:42;;;;;;;3.80;3.35;;;14.10;68.40;;;;;;5093963;28;20052;-44
2021/05/01 00:35:09;;;;;;;3.85;3.45;;;14.10;68.40;;;;;;5100687;28;20127;-46
2021/05/01 00:37:35;;;;;;;4.10;3.50;;;14.10;68.40;;;;;;5112205;28;20498;-44
2021/05/01 00:40:05;;;;;;;4.32;3.67;;;14.00;68.40;;;;;;5113414;28;20047;-45
2021/05/01 00:42:31;;;;;;;3.78;3.47;;;14.10;68.40;;;;;;5103794;28;20067;-43
2021/05/01 00:44:57;;;;;;;4.18;3.72;;;14.10;68.40;;;;;;5096453;28;20048;-45
2021/05/01 00:47:22;;;;;;;4.00;3.53;;;14.10;68.40;;;;;;5112080;28;20491;-46
2021/05/01 00:49:48;;;;;;;3.88;3.45;;;14.10;68.40;;;;;;5111337;28;20047;-47
2021/05/01 00:52:14;;;;;;;4.10;3.40;;;14.10;68.40;;;;;;5093278;28;20589;-47
2021/05/01 00:54:39;;;;;;;3.88;3.20;;;14.20;68.50;;;;;;5093173;28;20040;-43
2021/05/01 00:57:06;;;;;;;3.83;3.50;;;14.10;68.40;;;;;;5094293;28;20043;-47
2021/05/01 00:59:31;;;;;;;4.40;3.65;;;14.00;68.40;;;;;;5093155;28;20052;-47
2021/05/01 01:02:00;;;;;;;4.05;3.65;;;14.10;68.40;;;;;;5093354;28;20385;-47
2021/05/01 01:04:26;;;;;;;3.55;3.08;;;14.00;68.40;;;;;;5094108;28;20048;-44
2021/05/01 01:06:52;;;;;;;3.78;3.40;;;14.10;68.40;;;;;;5112246;28;20116;-47
2021/05/01 01:09:17;;;;;;;4.40;3.50;;;14.10;68.40;;;;;;5111870;28;20392;-48
2021/05/01 01:11:44;;;;;;;3.50;3.20;;;14.10;68.40;;;;;;5113572;28;20059;-47
2021/05/01 01:14:13;;;;;;;3.22;2.92;;;14.10;68.40;;;;;;5096700;28;20507;-48
2021/05/01 01:16:40;;;;;;;3.80;3.20;;;14.10;68.50;;;;;;5093232;28;20048;-48
2021/05/01 01:19:07;;;;;;;4.43;3.45;;;14.10;68.40;;;;;;5093937;28;20048;-46
2021/05/01 01:21:59;;;;;;;3.45;3.15;;;14.10;68.40;;;;;;5092428;28;20048;-47
2021/05/01 01:24:25;;;;;;;4.18;3.58;;;14.20;68.50;;;;;;5090961;28;20044;-44
2021/05/01 01:26:51;;;;;;;4.03;3.40;;;14.10;68.50;;;;;;5092600;28;20044;-45
2021/05/01 01:29:17;;;;;;;3.83;3.38;;;14.10;68.40;;;;;;5094124;28;20044;-49
2021/05/01 01:31:43;;;;;;;4.00;3.30;;;14.10;68.40;;;;;;5092819;28;20070;-47
2021/05/01 01:34:09;;;;;;;3.40;3.10;;;14.10;68.40;;;;;;5092819;28;20044;-47
2021/05/01 01:36:35;;;;;;;4.28;3.45;;;14.10;68.50;;;;;;5104804;28;20055;-45
2021/05/01 01:39:01;;;;;;;3.90;3.40;;;14.10;68.40;;;;;;5092784;28;20050;-47
2021/05/01 01:41:27;;;;;;;4.38;3.40;;;14.10;68.40;;;;;;5092553;28;20048;-47
2021/05/01 01:43:53;;;;;;;3.45;3.03;;;14.10;68.50;;;;;;5092970;28;20149;-49
2021/05/01 01:46:19;;;;;;;4.00;3.40;;;14.10;68.50;;;;;;5092802;28;20105;-47
2021/05/01 01:48:44;;;;;;;3.58;3.22;;;14.10;68.50;;;;;;5092546;28;20044;-46
2021/05/01 01:51:10;;;;;;;3.50;3.20;;;14.10;68.40;;;;;;5093440;28;20078;-45
2021/05/01 01:53:36;;;;;;;3.75;3.17;;;14.10;68.50;;;;;;5093784;28;20040;-48
2021/05/01 01:56:02;;;;;;;4.05;3.38;;;14.10;68.50;;;;;;5110766;28;20055;-45
2021/05/01 01:58:27;;;;;;;3.42;3.13;;;14.10;68.40;;;;;;5111493;28;20044;-45
2021/05/01 02:00:54;;;;;;;3.78;3.40;;;14.10;68.50;;;;;;5092624;28;20128;-48
2021/05/01 02:03:20;;;;;;;3.72;3.28;;;14.10;68.50;;;;;;5093636;28;20089;-45
2021/05/01 02:05:46;;;;;;;4.07;3.10;;;14.10;68.50;;;;;;5102508;28;20453;-46
2021/05/01 02:08:12;;;;;;;3.28;2.95;;;14.10;68.50;;;;;;5112398;28;20490;-48
2021/05/01 02:10:38;;;;;;;4.00;3.17;;;14.10;68.50;;;;;;5103531;28;20488;-46
2021/05/01 02:13:05;;;;;;;3.42;3.00;;;14.10;68.50;;;;;;5097930;28;20372;-45
2021/05/01 02:15:32;;;;;;;3.35;2.97;;;14.10;68.50;;;;;;5110832;28;20047;-47
2021/05/01 02:17:59;;;;;;;4.13;3.33;;;14.10;68.50;;;;;;5112700;28;20392;-48
2021/05/01 02:20:31;;;;;;;3.55;3.25;;;14.10;68.50;;;;;;5112417;28;20122;-47
2021/05/01 02:22:57;;;;;;;3.30;3.00;;;14.10;68.50;;;;;;5109958;28;20041;-45
2021/05/01 02:25:23;;;;;;;3.38;3.08;;;14.10;68.50;;;;;;5110953;28;20514;-47
2021/05/01 02:27:50;;;;;;;3.83;3.35;;;14.10;68.50;;;;;;5112663;28;20044;-45
2021/05/01 02:30:20;;;;;;;3.20;2.90;;;14.10;68.50;;;;;;5112450;28;20048;-45
2021/05/01 02:32:47;;;;;;;4.40;3.53;;;14.10;68.50;;;;;;5112853;28;20050;-46
2021/05/01 02:35:17;;;;;;;3.53;2.95;;;14.10;68.50;;;;;;5100518;28;20075;-44
2021/05/01 02:37:44;;;;;;;3.40;3.08;;;14.10;68.50;;;;;;5092293;28;20048;-43
2021/05/01 02:40:12;;;;;;;4.05;3.13;;;14.10;68.50;;;;;;5100601;28;20566;-45
2021/05/01 02:42:38;;;;;;;3.50;2.92;;;14.10;68.50;;;;;;5116287;28;20500;-47
2021/05/01 02:45:06;;;;;;;3.40;2.97;;;14.10;68.50;;;;;;5111789;28;20142;-48
2021/05/01 02:47:32;;;;;;;3.38;2.97;;;14.00;68.50;;;;;;5096790;28;20442;-45
2021/05/01 02:49:58;;;;;;;3.78;3.33;;;14.10;68.50;;;;;;5110019;28;20043;-46
2021/05/01 02:52:23;;;;;;;4.10;3.70;;;14.10;68.50;;;;;;5102161;28;20395;-42
2021/05/01 02:54:49;;;;;;;3.67;2.85;;;14.10;68.50;;;;;;5102884;28;20506;-46
2021/05/01 02:57:15;;;;;;;3.47;3.17;;;14.10;68.50;;;;;;5114104;28;20058;-48
2021/05/01 02:59:41;;;;;;;3.25;2.80;;;14.00;68.50;;;;;;5115548;28;20411;-45
2021/05/01 03:02:06;;;;;;;3.17;2.88;;;14.10;68.50;;;;;;5116171;28;20477;-46
2021/05/01 03:04:32;;;;;;;3.50;2.88;;;14.10;68.50;;;;;;5115560;28;20043;-44
2021/05/01 03:06:58;;;;;;;3.40;3.10;;;14.00;68.40;;;;;;5114123;28;20060;-43
2021/05/01 03:09:23;;;;;;;3.53;3.22;;;14.00;68.50;;;;;;5110659;28;20047;-46
2021/05/01 03:11:49;;;;;;;3.47;3.03;;;14.00;68.40;;;;;;5095083;28;20506;-44
2021/05/01 03:14:15;;;;;;;3.30;3.00;;;14.00;68.40;;;;;;5098410;28;20039;-45
2021/05/01 03:16:41;;;;;;;3.47;3.17;;;14.00;68.50;;;;;;5115653;28;20051;-47
2021/05/01 03:19:06;;;;;;;4.20;3.38;;;14.00;68.40;;;;;;5108334;28;20040;-44
2021/05/01 03:21:32;;;;;;;3.30;3.00;;;14.10;68.50;;;;;;5095293;28;20074;-42
2021/05/01 03:23:59;;;;;;;3.25;2.95;;;14.00;68.50;;;;;;5105477;28;20049;-42
2021/05/01 03:26:25;;;;;;;3.45;3.08;;;14.00;68.40;;;;;;5098620;28;20488;-44
2021/05/01 03:28:50;;;;;;;3.58;3.20;;;14.00;68.40;;;;;;5096327;28;20135;-49
2021/05/01 03:31:16;;;;;;;2.97;2.67;;;14.00;68.40;;;;;;5095575;28;20050;-44
2021/05/01 03:33:42;;;;;;;3.60;3.03;;;14.10;68.50;;;;;;5115453;28;20105;-46
2021/05/01 03:36:09;;;;;;;3.55;3.20;;;14.00;68.40;;;;;;5113628;27;20399;-45
2021/05/01 03:38:35;;;;;;;3.28;2.97;;;14.00;68.50;;;;;;5113948;28;20093;-41
2021/05/01 03:41:01;;;;;;;3.30;3.00;;;14.00;68.50;;;;;;5101869;28;20491;-49
2021/05/01 03:43:27;;;;;;;3.30;2.60;;;14.00;68.50;;;;;;5094690;28;20044;-46
2021/05/01 03:45:55;;;;;;;3.95;3.17;;;14.00;68.40;;;;;;5098204;28;20043;-45
2021/05/01 03:48:21;;;;;;;3.72;3.10;;;14.00;68.50;;;;;;5094790;28;20044;-47
2021/05/01 03:50:48;;;;;;;3.83;3.40;;;14.00;68.50;;;;;;5095632;28;20048;-45
2021/05/01 03:53:13;;;;;;;3.63;3.13;;;14.00;68.40;;;;;;5094415;28;20135;-48
2021/05/01 03:55:40;;;;;;;4.05;3.28;;;14.00;68.40;;;;;;5105239;28;20086;-45
2021/05/01 03:58:05;;;;;;;3.45;3.10;;;14.00;68.50;;;;;;5113399;28;20453;-45
2021/05/01 04:00:31;;;;;;;3.25;2.92;;;14.00;68.50;;;;;;5111999;28;20472;-43
2021/05/01 04:02:57;;;;;;;3.50;3.00;;;14.00;68.40;;;;;;5113802;28;20521;-44
2021/05/01 04:05:23;;;;;;;3.67;2.92;;;14.00;68.50;;;;;;5107671;28;20036;-45
2021/05/01 04:07:50;;;;;;;3.65;3.05;;;14.00;68.50;;;;;;5094438;28;20048;-47
2021/05/01 04:10:16;;;;;;;2.92;2.63;;;14.00;68.50;;;;;;5094148;28;20096;-45
2021/05/01 04:12:42;;;;;;;3.20;2.90;;;14.00;68.50;;;;;;5094403;28;20048;-46
2021/05/01 04:15:08;;;;;;;3.00;2.70;;;14.00;68.50;;;;;;5094191;28;20063;-46
2021/05/01 04:17:35;;;;;;;3.35;3.05;;;14.00;68.50;;;;;;5094297;28;20052;-48
2021/05/01 04:20:04;;;;;;;2.95;2.67;;;14.10;69.20;;;;;;5097615;28;20108;-47
2021/05/01 04:22:30;;;;;;;3.10;2.80;;;14.00;68.50;;;;;;5112733;28;20126;-47
2021/05/01 04:24:56;;;;;;;3.60;3.13;;;14.00;68.50;;;;;;5099614;28;20493;-48
2021/05/01 04:27:21;;;;;;;3.45;2.78;;;14.10;68.50;;;;;;5113291;28;20075;-45
2021/05/01 04:29:47;;;;;;;3.15;2.70;;;14.00;68.50;;;;;;5096548;28;20052;-46
2021/05/01 04:32:13;;;;;;;3.40;3.10;;;14.00;68.50;;;;;;5094793;28;20127;-48
2021/05/01 04:34:38;;;;;;;3.28;2.97;;;14.00;68.50;;;;;;5095042;28;20059;-44
2021/05/01 04:37:05;;;;;;;3.08;2.78;;;14.00;68.50;;;;;;5093805;28;20070;-47
2021/05/01 04:39:31;;;;;;;3.65;3.05;;;14.00;68.50;;;;;;5095011;28;20468;-44
2021/05/01 04:41:56;;;;;;;3.00;2.70;;;14.00;68.50;;;;;;5113868;28;20104;-43
2021/05/01 04:44:23;;;;;;;3.35;3.05;;;14.00;68.50;;;;;;5105966;28;20040;-45
2021/05/01 04:46:50;;;;;;;3.42;3.00;;;14.00;68.50;;;;;;5093628;28;20052;-42
2021/05/01 04:49:16;;;;;;;3.60;3.13;;;14.00;68.50;;;;;;5098390;28;20039;-44
2021/05/01 04:51:42;;;;;;;3.25;2.95;;;14.00;68.50;;;;;;5101326;28;20135;-48
2021/05/01 04:54:07;;;;;;;3.10;2.80;;;14.00;68.50;;;;;;5094434;28;20044;-45
2021/05/01 04:56:34;;;;;;;3.40;3.10;;;14.00;68.50;;;;;;5097793;28;20126;-44
2021/05/01 04:58:59;;;;;;;3.35;3.03;;;14.00;68.50;;;;;;5101361;28;20048;-48
2021/05/01 05:01:25;;;;;;;4.05;3.42;;;14.00;68.50;;;;;;5107974;28;20052;-46
2021/05/01 05:03:52;;;;;;;3.42;2.85;;;14.00;68.50;;;;;;5113800;28;20043;-45
2021/05/01 05:06:18;;;;;;;3.33;3.03;;;14.00;68.50;;;;;;5113302;28;20067;-42
2021/05/01 05:08:43;;;;;;;3.60;3.30;;;14.00;68.50;;;;;;5113715;28;20044;-47
2021/05/01 05:11:09;;;;;;;3.35;2.90;;;13.90;68.50;;;;;;5111918;28;20521;-41
2021/05/01 05:13:35;;;;;;;3.25;2.95;;;14.00;68.50;;;;;;5113041;28;20047;-44
2021/05/01 05:16:01;;;;;;;3.33;3.03;;;14.00;68.50;;;;;;5113431;28;20051;-46
2021/05/01 05:18:27;;;;;;;3.90;3.45;;;14.00;68.50;;;;;;5113463;28;20044;-46
2021/05/01 05:20:53;;;;;;;3.47;3.08;;;14.00;68.50;;;;;;5111841;28;20050;-44
2021/05/01 05:23:19;;;;;;;3.00;2.70;;;14.00;68.50;;;;;;5113237;28;20040;-47
2021/05/01 05:25:45;;;;;;;3.67;2.95;;;14.00;69.20;;;;;;5113499;28;20104;-48
2021/05/01 05:28:11;;;;;;;3.50;2.80;;;14.00;68.50;;;;;;5113306;28;20047;-47
2021/05/01 05:30:37;;;;;;;3.42;3.00;;;14.00;69.20;;;;;;5112893;28;20083;-46
2021/05/01 05:33:03;;;;;;;3.60;2.72;;;13.90;68.50;;;;;;5111507;28;20048;-41
2021/05/01 05:35:29;;;;;;;3.33;3.00;;;14.00;68.50;;;;;;5113150;28;20561;-45
2021/05/01 05:37:55;;;;;;;3.20;2.83;;;13.90;68.50;;;;;;5113443;28;20059;-48
2021/05/01 05:40:21;;;;;;;3.60;3.20;;;14.00;68.60;;;;;;5113104;28;20043;-45
2021/05/01 05:42:49;;;;;;;4.07;3.17;;;14.00;68.60;;;;;;5111488;28;20047;-46
2021/05/01 05:45:22;;;;;;;4.05;3.13;;;14.00;68.50;;;;;;5112845;28;20039;-44
2021/05/01 05:47:49;;;;;;;3.28;2.83;;;14.00;68.60;;;;;;5113050;28;20144;-44
2021/05/01 05:50:15;;;;;;;3.75;3.35;;;14.00;68.50;;;;;;5113088;28;20063;-44
2021/05/01 05:52:40;;;;;;;3.22;2.92;;;14.00;68.60;;;;;;5112797;28;20044;-41
2021/05/01 05:55:06;;;;;;;3.45;3.15;;;14.00;68.50;;;;;;5108688;28;20100;-44
2021/05/01 05:57:33;;;;;;;2.78;2.58;;;14.00;68.60;;;;;;5092756;28;20127;-40
2021/05/01 05:59:59;;;;;;;3.50;3.03;;;14.00;68.60;;;;;;5092237;28;20127;-42
2021/05/01 06:02:27;;;;;;;4.53;4.00;;;14.00;68.60;;;;;;5092727;28;20567;-44
2021/05/01 06:05:17;;;;;;;3.13;2.78;;;13.90;68.50;;;;;;5092922;28;20048;-42
2021/05/01 06:07:53;;;;;;;3.60;3.20;;;14.00;68.60;;;;;;5093078;28;20064;-43
2021/05/01 06:10:21;;;;;;;3.45;2.92;;;14.00;68.60;;;;;;5092494;28;20105;-44
2021/05/01 06:12:47;;;;;;;4.22;3.30;;;14.00;68.60;;;;;;5092868;28;20075;-45
2021/05/01 06:15:14;;;;;;;3.10;2.72;;;14.00;68.60;;;;;;5096326;28;20044;-46
2021/05/01 06:17:43;;;;;;;3.17;2.88;;;13.90;68.50;;;;;;5096269;28;20549;-44
2021/05/01 06:20:10;;;;;;;3.75;3.35;;;13.90;68.50;;;;;;5096448;28;20079;-44
2021/05/01 06:22:36;;;;;;;3.35;2.85;;;14.00;68.60;;;;;;5096671;28;20044;-47
2021/05/01 06:25:07;;;;;;;3.25;2.80;;;14.00;68.60;;;;;;5096159;28;20050;-47
2021/05/01 06:27:33;;;;;;;3.50;3.20;;;14.00;68.60;;;;;;5096618;28;20140;-44
2021/05/01 06:30:02;;;;;;;3.60;3.13;;;13.90;68.60;;;;;;5096203;28;20153;-48
2021/05/01 06:32:28;;;;;;;2.67;2.47;;;13.90;68.60;;;;;;5096718;28;20075;-47
2021/05/01 06:34:55;;;;;;;3.60;2.88;;;13.90;68.60;;;;;;5100863;28;20108;-47
2021/05/01 06:37:23;;;;;;;3.05;2.70;;;14.00;68.60;;;;;;5116534;28;20046;-44
2021/05/01 06:39:51;;;;;;;2.97;2.70;;;13.90;68.60;;;;;;5112910;27;20047;-42
2021/05/01 06:42:26;;;;;;;2.92;2.60;;;13.90;68.60;;;;;;5096178;28;20108;-42
2021/05/01 06:45:01;;;;;;;;;;;14.00;68.60;;;;;;5096330;28;20122;-44
2021/05/01 06:47:29;;;;;;;4.13;3.30;;;13.90;68.60;;;;;;5095441;28;19919;-45
2021/05/01 06:50:08;;;;;;;3.08;2.72;;;13.90;69.30;;;;;;5105087;28;20043;-45
2021/05/01 06:52:38;;;;;;;2.97;2.67;;;13.90;68.60;;;;;;5096910;27;20052;-44
2021/05/01 06:55:05;;;;;;;3.35;3.05;;;13.90;68.60;;;;;;5095583;28;20052;-46
2021/05/01 06:57:37;;;;;;;4.47;3.00;;;13.90;68.60;;;;;;5095845;28;20051;-44
2021/05/01 07:00:06;;;;;;;3.05;2.75;;;13.90;69.30;;;;;;5095632;28;20059;-44
2021/05/01 07:02:32;;;;;;;3.20;2.60;;;13.90;68.60;;;;;;5095324;28;20051;-44
2021/05/01 07:04:59;;;;;;;3.38;2.55;;;13.90;68.60;;;;;;5095317;28;20075;-48
2021/05/01 07:07:28;;;;;;;3.20;2.90;;;14.00;68.70;;;;;;5095469;28;20404;-44
2021/05/01 07:09:54;;;;;;;8.85;6.07;;;14.00;68.70;;;;;;5095270;28;20044;-44
2021/05/01 07:12:23;;;;;;;5.43;4.93;;;14.00;69.40;;;;;;5095153;28;20043;-47
2021/05/01 07:14:49;;;;;;;6.13;5.13;;;14.00;68.50;;;;;;5095288;28;20055;-45
2021/05/01 07:17:15;;;;;;;5.18;4.47;;;14.10;68.50;;;;;;5095115;28;20056;-45
2021/05/01 07:19:42;;;;;;;5.38;4.47;;;14.10;68.50;;;;;;5094996;28;20044;-45
2021/05/01 07:22:09;;;;;;;4.88;4.38;;;14.10;68.40;;;;;;5095304;28;20052;-47
2021/05/01 07:24:35;;;;;;;4.88;4.38;;;14.10;68.40;;;;;;5094637;28;20040;-44
2021/05/01 07:27:03;;;;;;;5.22;4.38;;;14.10;68.40;;;;;;5095218;28;20048;-46
2021/05/01 07:29:34;;;;;;;5.88;4.20;;;14.10;68.40;;;;;;5095160;28;20416;-45
2021/05/01 07:32:02;;;;;;;5.07;4.18;;;14.10;68.40;;;;;;5095081;28;20047;-45
2021/05/01 07:34:29;;;;;;;4.95;4.05;;;14.00;68.40;;;;;;5094534;28;20152;-42
2021/05/01 07:36:59;;;;;;;5.20;4.20;;;14.00;68.40;;;;;;5094937;28;20085;-44
2021/05/01 07:39:27;;;;;;;6.10;4.30;;;14.00;68.40;;;;;;5094925;28;20044;-47
2021/05/01 07:41:58;;;;;;;4.68;4.00;;;14.10;68.50;;;;;;5094742;28;20051;-44
2021/05/01 07:44:26;;;;;;;5.15;4.10;;;14.20;68.50;;;;;;5094921;28;20052;-44
2021/05/01 07:46:52;;;;;;;4.00;3.60;;;14.10;68.50;;;;;;5094608;28;20051;-44
2021/05/01 07:49:19;;;;;;;4.45;3.55;;;14.10;68.50;;;;;;5094230;28;20514;-46
2021/05/01 07:51:45;;;;;;;5.70;4.00;;;14.00;68.50;;;;;;5094650;28;20492;-45
2021/05/01 07:54:12;;;;;;;5.47;4.30;;;14.10;68.60;;;;;;5094476;28;20071;-42
2021/05/01 07:56:39;;;;;;;4.57;3.95;;;14.10;68.60;;;;;;5094535;28;20063;-44
2021/05/01 07:59:05;;;;;;;4.10;3.70;;;14.10;68.60;;;;;;5094684;28;20044;-43
2021/05/01 08:01:31;;;;;;;4.20;3.80;;;14.10;68.60;;;;;;5094642;28;20128;-43
2021/05/01 08:03:57;;;;;;;3.75;3.42;;;14.10;68.60;;;;;;5094354;28;20123;-43
2021/05/01 08:06:23;;;;;;;4.82;4.10;;;14.10;68.60;;;;;;5094452;28;20539;-45
2021/05/01 08:08:49;;;;;;;3.65;3.22;;;14.10;68.60;;;;;;5094275;28;20052;-45
2021/05/01 08:11:15;;;;;;;4.32;3.88;;;14.10;68.60;;;;;;5094199;28;20135;-44
2021/05/01 08:13:41;;;;;;;4.03;3.60;;;14.10;68.50;;;;;;5094279;28;20039;-43
2021/05/01 08:16:07;;;;;;;4.07;3.55;;;14.10;68.50;;;;;;5094313;28;20244;-43
2021/05/01 08:18:33;;;;;;;8.60;7.10;;;14.10;68.50;;;;;;5093728;28;20068;-44
2021/05/01 08:20:58;;;;;;;8.00;5.70;;;14.20;68.60;;;;;;5093607;28;20051;-44
2021/05/01 08:23:24;;;;;;;8.88;5.60;;;14.30;68.40;;;;;;5093900;28;20050;-43
2021/05/01 08:25:50;;;;;;;8.18;6.03;;;14.30;68.30;;;;;;5094525;28;20139;-49
2021/05/01 08:28:16;;;;;;;8.27;5.47;;;14.30;68.20;;;;;;5094047;28;20052;-48
2021/05/01 08:30:43;;;;;;;8.00;5.75;;;14.30;68.20;;;;;;5093783;28;20055;-44
2021/05/01 08:33:09;;;;;;;8.35;5.47;;;14.30;68.20;;;;;;5093704;28;20135;-40
2021/05/01 08:35:34;;;;;;;5.63;4.90;;;14.30;68.20;;;;;;5093033;28;20135;-42
2021/05/01 08:38:00;;;;;;;8.52;5.28;;;14.30;68.20;;;;;;5093909;28;20376;-40
2021/05/01 08:40:26;;;;;;;5.57;4.45;;;14.30;68.20;;;;;;5093603;28;20487;-37
2021/05/01 08:42:52;;;;;;;5.60;4.97;;;14.30;68.20;;;;;;5093737;28;20062;-47
2021/05/01 08:45:20;;;;;;;5.30;4.80;;;14.30;68.20;;;;;;5112895;28;20135;-41
2021/05/01 08:47:48;;;;;;;5.80;4.97;;;14.40;68.30;;;;;;5114269;28;20051;-45
2021/05/01 08:50:25;;;;;;;5.40;4.32;;;14.30;68.30;;;;;;5113629;28;20039;-45
2021/05/01 08:52:55;;;;;;;5.70;4.75;;;14.30;68.30;;;;;;5113808;28;20084;-47
2021/05/01 08:55:25;;;;;;;7.68;5.07;;;14.30;68.30;;;;;;5113775;28;20134;-47
2021/05/01 08:57:51;;;;;;;5.45;4.82;;;14.30;68.30;;;;;;5113967;28;20051;-52
2021/05/01 09:00:18;;;;;;;6.43;4.93;;;14.30;68.30;;;;;;5113919;28;20050;-43
2021/05/01 09:02:44;;;;;;;6.30;4.40;;;14.30;68.30;;;;;;5113877;28;20047;-43
2021/05/01 09:05:11;;;;;;;5.45;4.75;;;14.30;68.30;;;;;;5113513;28;20096;-49
2021/05/01 09:07:38;;;;;;;6.43;4.70;;;14.30;68.30;;;;;;5096796;28;20557;-46
2021/05/01 09:10:06;;;;;;;5.03;4.18;;;14.20;68.30;;;;;;5092797;28;20040;-49
2021/05/01 09:12:45;;;;;;;10.30;8.25;;;14.30;68.30;;;;;;5091699;28;20050;-45
2021/05/01 09:15:23;;;;;;;7.05;5.80;;;14.30;68.30;;;;;;5093158;28;20048;-46
2021/05/01 09:18:04;;;;;;;5.47;4.82;;;14.30;68.20;;;;;;5093190;28;20048;-47
2021/05/01 09:20:30;;;;;;;5.97;5.32;;;14.30;68.90;;;;;;5093211;28;20051;-49
2021/05/01 09:23:16;;;;;;;6.65;5.60;;;14.30;68.20;;;;;;5092476;28;20044;-48
2021/05/01 09:25:54;;;;;;;6.72;5.50;;;14.30;68.20;;;;;;5092725;28;20055;-46
2021/05/01 09:28:20;;;;;;;7.20;5.55;;;14.30;68.20;;;;;;5093235;28;20051;-44
2021/05/01 09:31:02;;;;;;;6.05;5.45;;;14.30;68.30;;;;;;5093525;28;20066;-52
2021/05/01 09:33:52;;;;;;;5.10;4.32;;;14.30;68.20;;;;;;5092884;28;20408;-52
2021/05/01 09:36:20;;;;;;;5.75;4.80;;;14.30;68.20;;;;;;5049444;28;20047;-46
2021/05/01 09:39:07;;;;;;;5.47;4.82;;;14.30;68.20;;;;;;5030275;28;20041;-46
2021/05/01 09:41:41;;;;;;;5.53;4.28;;;14.30;68.30;;;;;;5022479;28;20148;-49
2021/05/01 09:44:12;;;;;;;5.40;4.40;;;14.30;68.20;;;;;;5030698;28;20083;-46
2021/05/01 09:46:42;;;;;;;6.70;4.70;;;14.30;68.30;;;;;;5030544;28;20162;-46
2021/05/01 09:49:28;;;;;;;5.20;4.68;;;14.40;68.30;;;;;;5034709;28;20053;-45
2021/05/01 09:52:23;;;;;;;5.70;4.55;;;14.30;68.20;;;;;;5038411;28;20055;-45
2021/05/01 09:54:51;;;;;;;4.85;4.15;;;14.40;68.30;;;;;;5012288;28;20506;-45
2021/05/01 09:57:19;;;;;;;5.53;4.07;;;14.40;68.30;;;;;;5014655;28;20042;-48
2021/05/01 09:59:49;;;;;;;5.15;3.90;;;14.40;68.30;;;;;;5014555;28;20054;-45
2021/05/01 10:02:16;;;;;;;4.57;4.05;;;14.40;68.30;;;;;;5012836;28;20560;-43
2021/05/01 10:05:05;;;;;;;5.22;4.22;;;14.40;68.30;;;;;;5014304;28;20049;-46
2021/05/01 10:07:32;;;;;;;4.40;3.95;;;14.40;68.20;;;;;;5014496;28;20061;-46
2021/05/01 10:09:58;;;;;;;4.28;3.75;;;14.40;68.30;;;;;;5014171;28;20089;-49
2021/05/01 10:12:45;;;;;;;4.32;3.58;;;14.40;68.30;;;;;;5019704;28;21136;-46
2021/05/01 10:15:23;;;;;;;4.72;3.88;;;14.40;68.20;;;;;;5073155;28;20044;-47
2021/05/01 10:17:50;;;;;;;4.03;3.63;;;14.40;68.30;;;;;;5074111;28;20072;-44
2021/05/01 10:20:16;;;;;;;4.15;3.58;;;14.40;68.20;;;;;;5073970;28;20149;-49
2021/05/01 10:22:46;;;;;;;5.32;4.03;;;14.40;68.30;;;;;;5074001;28;20071;-49
2021/05/01 10:25:18;;;;;;;3.85;3.45;;;14.40;68.30;;;;;;5073123;28;20149;-47
2021/05/01 10:27:55;;;;;;;4.30;3.53;;;14.30;68.20;;;;;;5073834;28;20683;-46
2021/05/01 10:30:32;;;;;;;3.60;3.30;;;14.40;68.20;;;;;;5076932;28;20506;-45
2021/05/01 10:33:12;;;;;;;3.55;3.25;;;14.40;68.20;;;;;;5095569;28;20043;-48
2021/05/01 10:35:47;;;;;;;4.55;3.70;;;14.40;68.20;;;;;;5098735;28;20388;-46
2021/05/01 10:38:17;;;;;;;4.28;3.60;;;14.40;68.20;;;;;;5116625;28;20407;-46
2021/05/01 10:40:54;;;;;;;5.53;3.72;;;14.40;68.20;;;;;;5104424;28;20059;-48
2021/05/01 10:43:23;;;;;;;4.82;3.85;;;14.40;68.20;;;;;;5096081;28;20048;-45
2021/05/01 10:46:05;;;;;;;3.25;2.95;;;14.40;68.20;;;;;;5094779;28;20059;-48
2021/05/01 10:48:34;;;;;;;3.10;2.80;;;14.40;68.20;;;;;;5096232;28;20047;-51
2021/05/01 10:51:04;;;;;;;4.05;3.45;;;14.40;68.20;;;;;;5095833;28;20098;-46
2021/05/01 10:53:30;;;;;;;3.72;3.28;;;14.40;68.20;;;;;;5112605;28;20046;-48
2021/05/01 10:55:56;;;;;;;3.90;3.10;;;14.40;68.20;;;;;;5115529;28;20473;-48
2021/05/01 10:58:42;;;;;;;3.47;2.90;;;14.40;68.20;;;;;;5115708;28;20051;-48
2021/05/01 11:01:10;;;;;;;;;;;14.40;68.20;;;;;;5116456;28;20122;-46
2021/05/01 11:03:44;;;;;;;3.40;2.75;;;14.40;68.20;;;;;;5116078;28;20010;-47
2021/05/01 11:06:21;;;;;;;3.45;3.10;;;14.40;68.20;;;;;;5116043;28;20134;-50
2021/05/01 11:09:07;;;;;;;3.17;2.53;;;14.40;68.20;;;;;;5115874;28;20048;-47
2021/05/01 11:11:39;;;;;;;3.25;2.70;;;14.40;68.20;;;;;;5115771;28;20144;-46
2021/05/01 11:14:19;;;;;;;3.58;3.17;;;14.40;68.20;;;;;;5115918;28;20123;-46
2021/05/01 11:16:53;;;;;;;3.97;2.95;;;14.40;68.20;;;;;;5115766;28;20051;-44
2021/05/01 11:19:21;;;;;;;2.92;2.65;;;14.40;68.20;;;;;;5115570;28;20050;-47
2021/05/01 11:21:48;;;;;;;3.75;2.75;;;14.40;68.20;;;;;;5115794;28;20054;-43
2021/05/01 11:24:15;;;;;;;3.20;2.80;;;14.40;68.20;;;;;;5089947;28;20071;-44
2021/05/01 11:26:46;;;;;;;2.95;2.58;;;14.40;68.20;;;;;;5076842;28;20117;-47
2021/05/01 11:29:13;;;;;;;3.00;2.55;;;14.40;68.20;;;;;;5094497;28;20101;-47
2021/05/01 11:31:41;;;;;;;2.72;2.53;;;14.40;68.20;;;;;;5114290;28;20054;-44
2021/05/01 11:34:08;;;;;;;2.92;2.53;;;14.40;68.20;;;;;;5115484;28;20123;-44
2021/05/01 11:36:45;;;;;;;4.47;3.00;;;14.40;68.20;;;;;;5111384;28;20059;-46
2021/05/01 11:39:12;;;;;;;3.20;2.60;;;14.50;68.20;;;;;;5093973;28;20372;-43
2021/05/01 11:41:42;;;;;;;2.92;2.30;;;14.40;68.20;;;;;;5094488;28;20080;-48
2021/05/01 11:44:16;;;;;;;3.30;2.80;;;14.40;68.10;;;;;;5094811;28;20044;-46
2021/05/01 11:46:46;;;;;;;3.03;2.35;;;14.40;68.10;;;;;;5093776;28;20036;-47
2021/05/01 11:49:13;;;;;;;3.05;2.75;;;14.50;68.20;;;;;;5094020;28;20040;-48
2021/05/01 11:52:03;;;;;;;3.05;2.65;;;14.50;68.20;;;;;;5094300;28;20556;-46
2021/05/01 11:54:59;;;;;;;3.05;2.60;;;14.50;68.20;;;;;;5094569;28;20048;-47
2021/05/01 11:57:46;;;;;;;2.50;2.30;;;14.40;68.80;;;;;;5073813;28;20052;-50
2021/05/01 12:00:13;;;;;;;2.88;2.40;;;14.50;68.20;;;;;;5072259;28;20048;-46
2021/05/01 12:02:41;;;;;;;2.75;2.38;;;14.50;68.20;;;;;;5074138;28;20048;-50
2021/05/01 12:05:19;;;;;;;2.70;2.35;;;14.40;68.10;;;;;;5074272;28;20481;-43
2021/05/01 12:07:54;;;;;;;2.45;2.15;;;14.40;68.10;;;;;;5073005;28;20059;-47
2021/05/01 12:10:22;;;;;;;2.50;2.30;;;14.40;68.10;;;;;;5073170;28;20049;-47
2021/05/01 12:13:08;;;;;;;2.20;1.92;;;14.50;68.20;;;;;;5072823;28;20044;-48
2021/05/01 12:15:38;;;;;;;2.47;2.28;;;14.50;68.20;;;;;;5075479;28;20048;-44
2021/05/01 12:18:05;;;;;;;2.85;2.35;;;14.40;68.10;;;;;;5093967;28;20489;-46
2021/05/01 12:20:35;;;;;;;3.28;2.20;;;14.30;68.10;;;;;;5075299;28;20089;-49
2021/05/01 12:23:08;;;;;;;2.50;2.25;;;14.50;68.20;;;;;;5072746;28;20178;-45
2021/05/01 12:25:42;;;;;;;2.70;2.25;;;14.50;68.10;;;;;;5073982;28;20045;-43
2021/05/01 12:28:10;;;;;;;2.28;1.90;;;14.50;68.20;;;;;;5073594;28;20053;-45
2021/05/01 12:30:43;;;;;;;2.40;2.20;;;14.50;68.10;;;;;;5074036;28;20049;-42
2021/05/01 12:33:27;;;;;;;3.08;2.08;;;14.50;68.10;;;;;;5084040;28;20166;-47
2021/05/01 12:35:57;;;;;;;2.35;2.03;;;14.50;68.20;;;;;;5057047;28;20055;-41
2021/05/01 12:38:25;;;;;;;2.35;2.03;;;14.50;68.10;;;;;;5048121;28;20053;-41
2021/05/01 12:41:13;;;;;;;2.40;2.20;;;14.50;68.10;;;;;;5047498;28;20064;-41
2021/05/01 12:43:42;;;;;;;2.08;1.98;;;14.50;68.10;;;;;;5047672;28;20143;-42
2021/05/01 12:46:13;;;;;;;2.35;2.13;;;14.50;68.10;;;;;;5047513;28;20549;-41
2021/05/01 12:48:50;;;;;;;2.30;2.00;;;14.50;68.20;;;;;;5047608;28;20056;-42
2021/05/01 12:51:23;;;;;;;2.40;2.15;;;14.50;68.10;;;;;;5047223;28;20052;-43
2021/05/01 12:53:50;;;;;;;1.90;1.73;;;14.50;68.10;;;;;;5047669;28;20055;-46
2021/05/01 12:56:28;;;;;;;2.50;2.30;;;14.50;68.10;;;;;;5061138;28;20428;-41